Time;durP1;ratioP1;P1;durP2;ratioP2;P2;SDS_P1;SDS_P2;PMS_P1;PMS_P2;Temp;Humidity;BMP_temperature;BMP_pressure;BME280_temperature;BME280_humidity;BME280_pressure;Samples;Min_cycle;Max_cycle;Signal;HPM_P1;HPM_P2
2022/01/07 00:01:02;;;;;;;11.80;4.70;;;1.00;99.90;;;;;;5077532;28;20458;-69
2022/01/07 00:03:30;;;;;;;14.00;4.63;;;1.00;99.90;;;;;;5078018;28;20474;-70
2022/01/07 00:05:58;;;;;;;13.20;4.57;;;1.00;99.90;;;;;;5076977;28;20453;-70
2022/01/07 00:08:25;;;;;;;17.50;6.20;;;1.00;99.90;;;;;;5077294;28;20845;-70
2022/01/07 00:10:51;;;;;;;10.00;5.30;;;1.00;99.90;;;;;;5078319;28;20515;-69
2022/01/07 00:13:18;;;;;;;11.50;4.50;;;1.00;99.90;;;;;;5078031;28;20454;-69
2022/01/07 00:15:45;;;;;;;13.63;4.83;;;1.00;99.90;;;;;;5077350;28;20467;-69
2022/01/07 00:18:13;;;;;;;16.43;4.97;;;1.00;99.90;;;;;;5076942;28;20454;-68
2022/01/07 00:20:40;;;;;;;8.57;3.90;;;1.00;99.90;;;;;;5076746;28;20538;-69
2022/01/07 00:23:07;;;;;;;11.37;5.03;;;1.00;99.90;;;;;;5076332;28;20454;-69
2022/01/07 00:25:34;;;;;;;11.10;4.33;;;1.00;99.90;;;;;;5076867;28;20459;-69
2022/01/07 00:28:01;;;;;;;8.40;4.23;;;1.00;99.90;;;;;;5076700;28;20455;-69
2022/01/07 00:30:27;;;;;;;13.33;4.30;;;1.00;99.90;;;;;;5076595;28;20524;-69
2022/01/07 00:32:54;;;;;;;12.00;5.07;;;1.00;99.90;;;;;;5076924;28;20469;-69
2022/01/07 00:35:22;;;;;;;8.27;4.07;;;1.00;99.90;;;;;;5076411;28;20941;-70
2022/01/07 00:37:50;;;;;;;8.73;4.93;;;0.90;99.90;;;;;;5076333;28;20800;-68
2022/01/07 00:40:19;;;;;;;7.53;4.80;;;1.00;99.90;;;;;;5076012;28;20462;-69
2022/01/07 00:42:48;;;;;;;6.13;4.43;;;1.00;99.90;;;;;;5076010;28;20454;-68
2022/01/07 00:45:15;;;;;;;15.73;5.20;;;1.00;99.90;;;;;;5076285;28;20482;-69
2022/01/07 00:47:41;;;;;;;12.97;5.30;;;1.00;99.90;;;;;;5076040;28;20824;-70
2022/01/07 00:50:09;;;;;;;16.20;4.90;;;1.00;99.90;;;;;;5075973;28;20465;-69
2022/01/07 00:52:37;;;;;;;12.40;4.67;;;1.00;99.90;;;;;;5075989;28;20511;-69
2022/01/07 00:55:05;;;;;;;13.03;4.43;;;1.00;99.90;;;;;;5076581;28;20836;-69
2022/01/07 00:57:32;;;;;;;9.03;4.23;;;1.00;99.90;;;;;;5076122;28;20484;-69
2022/01/07 00:59:59;;;;;;;8.13;4.50;;;1.00;99.90;;;;;;5075386;28;20454;-69
2022/01/07 01:02:27;;;;;;;11.07;4.50;;;1.00;99.90;;;;;;5075753;28;20469;-69
2022/01/07 01:04:54;;;;;;;13.83;5.13;;;0.90;99.90;;;;;;5075783;28;20482;-70
2022/01/07 01:07:21;;;;;;;7.33;4.10;;;1.00;99.90;;;;;;5075718;28;20465;-69
2022/01/07 01:09:49;;;;;;;6.27;3.93;;;1.00;99.90;;;;;;5075638;28;20474;-69
2022/01/07 01:12:16;;;;;;;10.23;4.17;;;0.90;99.90;;;;;;5075983;28;20465;-70
2022/01/07 01:14:42;;;;;;;10.80;4.57;;;0.90;99.90;;;;;;5076100;28;20461;-70
2022/01/07 01:17:10;;;;;;;10.80;4.90;;;0.90;99.90;;;;;;5075674;28;20788;-69
2022/01/07 01:19:37;;;;;;;12.20;4.53;;;1.00;99.90;;;;;;5075297;28;20949;-69
2022/01/07 01:22:05;;;;;;;10.70;5.20;;;0.90;99.90;;;;;;5075404;28;20541;-69
2022/01/07 01:24:32;;;;;;;12.13;4.83;;;0.90;99.90;;;;;;5075229;28;20544;-68
2022/01/07 01:27:00;;;;;;;11.20;4.53;;;0.90;99.90;;;;;;5075187;28;20914;-68
2022/01/07 01:29:27;;;;;;;6.77;4.93;;;0.90;99.90;;;;;;5075367;28;20469;-69
2022/01/07 01:31:54;;;;;;;8.53;4.57;;;0.90;99.90;;;;;;5075519;28;20915;-68
2022/01/07 01:34:21;;;;;;;15.50;5.00;;;0.80;99.90;;;;;;5075591;28;20446;-70
2022/01/07 01:36:47;;;;;;;17.57;5.67;;;0.80;99.90;;;;;;5075576;28;20960;-69
2022/01/07 01:39:14;;;;;;;11.93;5.07;;;0.80;99.90;;;;;;5075523;28;20454;-70
2022/01/07 01:41:42;;;;;;;10.00;5.50;;;0.90;99.90;;;;;;5075586;28;20782;-68
2022/01/07 01:44:10;;;;;;;18.33;5.20;;;0.90;99.90;;;;;;5074920;28;20485;-69
2022/01/07 01:46:37;;;;;;;8.87;5.47;;;0.80;99.90;;;;;;5075519;28;20764;-69
2022/01/07 01:49:05;;;;;;;16.17;5.67;;;0.70;99.90;;;;;;5075186;28;20489;-69
2022/01/07 01:51:32;;;;;;;12.80;5.60;;;0.70;99.90;;;;;;5075541;28;20466;-69
2022/01/07 01:54:00;;;;;;;16.70;6.00;;;0.80;99.90;;;;;;5075324;28;20457;-70
2022/01/07 01:56:26;;;;;;;11.00;5.27;;;0.70;99.90;;;;;;5075469;28;20694;-70
2022/01/07 01:58:53;;;;;;;11.70;5.87;;;0.70;99.90;;;;;;5076291;28;20941;-70
2022/01/07 02:01:21;;;;;;;12.97;5.53;;;0.70;99.90;;;;;;5075730;28;20454;-69
2022/01/07 02:03:48;;;;;;;14.27;6.83;;;0.70;99.90;;;;;;5075355;28;20489;-69
2022/01/07 02:06:16;;;;;;;10.97;6.60;;;0.70;99.90;;;;;;5075275;28;20450;-70
2022/01/07 02:08:43;;;;;;;11.67;6.20;;;0.70;99.90;;;;;;5074731;28;20465;-69
2022/01/07 02:11:10;;;;;;;11.07;6.00;;;0.60;99.90;;;;;;5074984;28;20469;-69
2022/01/07 02:13:37;;;;;;;11.50;6.47;;;0.60;99.90;;;;;;5075268;28;20594;-70
2022/01/07 02:16:04;;;;;;;10.23;6.17;;;0.50;99.90;;;;;;5075045;28;20934;-70
2022/01/07 02:18:32;;;;;;;20.30;7.47;;;0.60;99.90;;;;;;5074808;28;20922;-70
2022/01/07 02:21:03;;;;;;;13.23;6.40;;;0.60;99.90;;;;;;5075597;28;20454;-69
2022/01/07 02:23:32;;;;;;;19.13;7.97;;;0.60;99.90;;;;;;5075017;28;20482;-69
2022/01/07 02:25:59;;;;;;;16.93;6.20;;;0.60;99.90;;;;;;5074594;28;21036;-68
2022/01/07 02:28:27;;;;;;;16.00;6.83;;;0.60;99.90;;;;;;5074914;28;20823;-69
2022/01/07 02:30:54;;;;;;;16.20;5.97;;;0.60;99.90;;;;;;5074674;28;20462;-69
2022/01/07 02:33:21;;;;;;;10.30;6.00;;;0.50;99.90;;;;;;5075002;28;20454;-70
2022/01/07 02:35:48;;;;;;;11.67;5.40;;;0.50;99.90;;;;;;5074473;28;20446;-70
2022/01/07 02:38:16;;;;;;;15.90;6.97;;;0.50;99.90;;;;;;5075026;28;20469;-69
2022/01/07 02:40:43;;;;;;;10.43;5.83;;;0.50;99.90;;;;;;5074593;28;20465;-68
2022/01/07 02:43:10;;;;;;;12.83;6.40;;;0.50;99.90;;;;;;5074584;28;20473;-68
2022/01/07 02:45:37;;;;;;;16.10;6.93;;;0.50;99.90;;;;;;5074316;28;20501;-69
2022/01/07 02:48:04;;;;;;;13.23;7.43;;;0.40;99.90;;;;;;5074705;28;20508;-69
2022/01/07 02:50:36;;;;;;;17.33;6.33;;;0.40;99.90;;;;;;5075944;28;20782;-69
2022/01/07 02:53:05;;;;;;;12.83;5.50;;;0.50;99.90;;;;;;5077202;28;20461;-70
2022/01/07 02:55:33;;;;;;;10.70;6.10;;;0.50;99.90;;;;;;5076828;28;20914;-69
2022/01/07 02:57:59;;;;;;;13.50;6.43;;;0.50;99.90;;;;;;5076756;28;20453;-69
2022/01/07 03:00:28;;;;;;;14.87;6.80;;;0.60;99.90;;;;;;5075673;28;20755;-69
2022/01/07 03:02:56;;;;;;;18.53;7.57;;;0.60;99.90;;;;;;5075006;28;20461;-69
2022/01/07 03:05:23;;;;;;;15.10;7.23;;;0.60;99.90;;;;;;5074637;28;20966;-68
2022/01/07 03:07:50;;;;;;;10.40;6.40;;;0.60;99.90;;;;;;5074924;28;20465;-69
2022/01/07 03:10:19;;;;;;;13.57;6.60;;;0.60;99.90;;;;;;5074516;28;20791;-70
2022/01/07 03:12:49;;;;;;;17.17;6.80;;;0.60;99.90;;;;;;5073962;28;20458;-69
2022/01/07 03:15:16;;;;;;;12.87;8.00;;;0.50;99.90;;;;;;5074035;28;20446;-70
2022/01/07 03:17:43;;;;;;;13.80;7.27;;;0.50;99.90;;;;;;5074083;28;20458;-69
2022/01/07 03:20:14;;;;;;;12.10;7.37;;;0.50;99.90;;;;;;5075746;28;20454;-69
2022/01/07 03:22:41;;;;;;;11.60;6.60;;;0.40;99.90;;;;;;5077984;28;20491;-69
2022/01/07 03:25:09;;;;;;;12.03;7.40;;;0.40;99.90;;;;;;5077849;28;20482;-68
2022/01/07 03:27:36;;;;;;;13.77;6.00;;;0.40;99.90;;;;;;5077818;28;20519;-70
2022/01/07 03:30:06;;;;;;;13.17;7.40;;;0.40;99.90;;;;;;5077590;28;20453;-69
2022/01/07 03:32:33;;;;;;;7.70;6.07;;;0.50;99.90;;;;;;5077728;28;20823;-69
2022/01/07 03:35:00;;;;;;;9.40;5.83;;;0.40;99.90;;;;;;5077566;28;20454;-69
2022/01/07 03:37:27;;;;;;;11.77;6.63;;;0.40;99.90;;;;;;5077645;28;20454;-69
2022/01/07 03:39:53;;;;;;;11.07;6.83;;;0.40;99.90;;;;;;5077376;28;20454;-69
2022/01/07 03:42:20;;;;;;;9.33;5.70;;;0.50;99.90;;;;;;5077694;28;20535;-70
2022/01/07 03:44:47;;;;;;;11.77;7.17;;;0.50;99.90;;;;;;5077436;28;20489;-69
2022/01/07 03:47:15;;;;;;;17.30;6.37;;;0.50;99.90;;;;;;5077641;28;20458;-70
2022/01/07 03:49:42;;;;;;;11.00;6.30;;;0.40;99.90;;;;;;5077387;28;20442;-68
2022/01/07 03:52:08;;;;;;;10.17;6.70;;;0.40;99.90;;;;;;5076892;28;20458;-70
2022/01/07 03:54:35;;;;;;;9.73;6.70;;;0.40;99.90;;;;;;5077175;28;20902;-70
2022/01/07 03:57:02;;;;;;;10.57;6.20;;;0.40;99.90;;;;;;5077301;28;20840;-69
2022/01/07 03:59:30;;;;;;;10.07;6.60;;;0.40;99.90;;;;;;5077016;28;20469;-69
2022/01/07 04:01:56;;;;;;;9.10;6.40;;;0.40;99.90;;;;;;5077171;28;20486;-69
2022/01/07 04:04:24;;;;;;;9.07;7.00;;;0.40;99.90;;;;;;5076853;28;20478;-69
2022/01/07 04:06:51;;;;;;;15.77;8.30;;;0.40;99.90;;;;;;5077106;28;20466;-69
2022/01/07 04:09:18;;;;;;;11.37;7.83;;;0.50;99.90;;;;;;5076679;28;20797;-69
2022/01/07 04:11:44;;;;;;;15.77;7.60;;;0.50;99.90;;;;;;5077464;28;20822;-70
2022/01/07 04:14:11;;;;;;;18.30;7.47;;;0.50;99.90;;;;;;5077142;28;20808;-69
2022/01/07 04:16:38;;;;;;;12.57;7.40;;;0.50;99.90;;;;;;5077047;28;20454;-69
2022/01/07 04:19:04;;;;;;;12.27;7.20;;;0.50;99.90;;;;;;5077268;28;20519;-70
2022/01/07 04:21:32;;;;;;;11.10;8.20;;;0.40;99.90;;;;;;5076544;28;20528;-69
2022/01/07 04:23:59;;;;;;;13.33;7.03;;;0.40;99.90;;;;;;5076488;28;20922;-69
2022/01/07 04:26:26;;;;;;;14.23;7.07;;;0.40;99.90;;;;;;5076745;28;20478;-69
2022/01/07 04:28:52;;;;;;;12.20;7.20;;;0.40;99.90;;;;;;5076511;28;20461;-69
2022/01/07 04:31:19;;;;;;;11.07;7.33;;;0.40;99.90;;;;;;5076028;28;20462;-69
2022/01/07 04:33:46;;;;;;;11.63;7.80;;;0.50;99.90;;;;;;5076472;28;20470;-70
2022/01/07 04:36:12;;;;;;;12.97;7.50;;;0.50;99.90;;;;;;5076526;28;20446;-69
2022/01/07 04:38:40;;;;;;;12.73;7.50;;;0.60;99.90;;;;;;5076674;28;20466;-70
2022/01/07 04:41:07;;;;;;;13.60;7.47;;;0.60;99.90;;;;;;5076582;28;20462;-69
2022/01/07 04:43:35;;;;;;;13.17;7.53;;;0.60;99.90;;;;;;5076372;28;20465;-68
2022/01/07 04:46:03;;;;;;;12.57;7.77;;;0.60;99.90;;;;;;5076410;28;20478;-70
2022/01/07 04:48:30;;;;;;;12.83;7.60;;;0.60;99.90;;;;;;5076231;28;20486;-69
2022/01/07 04:50:58;;;;;;;9.83;7.00;;;0.60;99.90;;;;;;5076074;28;20459;-70
2022/01/07 04:53:27;;;;;;;9.80;6.63;;;0.60;99.90;;;;;;5076062;28;20458;-70
2022/01/07 04:55:58;;;;;;;10.80;7.93;;;0.70;99.90;;;;;;5076288;28;20493;-70
2022/01/07 04:58:25;;;;;;;12.03;6.87;;;0.70;99.90;;;;;;5075974;28;20453;-69
2022/01/07 05:00:53;;;;;;;10.53;7.00;;;0.70;99.90;;;;;;5076225;28;20469;-69
2022/01/07 05:03:20;;;;;;;12.37;6.90;;;0.70;99.90;;;;;;5076008;28;20462;-70
2022/01/07 05:05:52;;;;;;;8.73;5.90;;;0.70;99.90;;;;;;5076531;28;20489;-69
2022/01/07 05:08:19;;;;;;;11.07;7.23;;;0.70;99.90;;;;;;5075860;28;20462;-69
2022/01/07 05:10:46;;;;;;;12.70;6.87;;;0.70;99.90;;;;;;5075856;28;20454;-70
2022/01/07 05:13:14;;;;;;;7.43;6.60;;;0.70;99.90;;;;;;5075915;28;20522;-69
2022/01/07 05:15:41;;;;;;;8.17;6.70;;;0.70;99.90;;;;;;5075983;28;20450;-70
2022/01/07 05:18:09;;;;;;;10.77;7.40;;;0.80;99.90;;;;;;5076332;28;20453;-69
2022/01/07 05:20:36;;;;;;;9.07;6.50;;;0.80;99.90;;;;;;5075857;28;20512;-70
2022/01/07 05:23:03;;;;;;;10.67;6.73;;;0.80;99.90;;;;;;5075485;28;20465;-69
2022/01/07 05:25:34;;;;;;;8.93;5.37;;;0.80;99.90;;;;;;5075713;28;20791;-69
2022/01/07 05:28:02;;;;;;;12.50;6.20;;;0.90;99.90;;;;;;5076229;28;20875;-69
2022/01/07 05:30:30;;;;;;;12.33;6.70;;;0.80;99.90;;;;;;5075800;28;20973;-68
2022/01/07 05:32:56;;;;;;;8.50;6.60;;;0.90;99.90;;;;;;5075576;28;20488;-69
2022/01/07 05:35:25;;;;;;;8.23;6.40;;;0.90;99.90;;;;;;5075264;28;20458;-70
2022/01/07 05:37:53;;;;;;;9.43;6.63;;;0.90;99.90;;;;;;5074994;28;20943;-70
2022/01/07 05:40:20;;;;;;;8.70;5.67;;;0.80;99.90;;;;;;5074966;28;20455;-69
2022/01/07 05:42:46;;;;;;;10.97;5.97;;;0.80;99.90;;;;;;5074978;28;20519;-70
2022/01/07 05:45:14;;;;;;;7.73;5.43;;;0.80;99.90;;;;;;5075242;28;20478;-69
2022/01/07 05:47:42;;;;;;;12.13;5.80;;;0.80;99.90;;;;;;5075078;28;20482;-70
2022/01/07 05:50:13;;;;;;;9.37;6.10;;;0.80;99.90;;;;;;5076110;28;20911;-70
2022/01/07 05:52:39;;;;;;;9.30;5.70;;;0.80;99.90;;;;;;5074982;28;20458;-70
2022/01/07 05:55:08;;;;;;;11.83;8.07;;;0.70;99.90;;;;;;5075771;28;20450;-70
2022/01/07 05:57:35;;;;;;;16.57;6.20;;;0.80;99.90;;;;;;5074856;28;20929;-69
2022/01/07 06:00:03;;;;;;;10.23;5.57;;;0.80;99.90;;;;;;5075033;28;20544;-70
2022/01/07 06:02:30;;;;;;;7.07;5.60;;;0.80;99.90;;;;;;5074861;28;20481;-70
2022/01/07 06:04:59;;;;;;;9.60;6.13;;;0.80;99.90;;;;;;5075105;28;20484;-70
2022/01/07 06:07:25;;;;;;;7.70;5.40;;;0.70;99.90;;;;;;5075455;28;20454;-70
2022/01/07 06:09:52;;;;;;;14.80;5.47;;;0.80;99.90;;;;;;5075171;28;20454;-70
2022/01/07 06:12:19;;;;;;;11.30;5.60;;;0.70;99.90;;;;;;5075517;28;20541;-70
2022/01/07 06:14:47;;;;;;;10.00;5.13;;;0.80;99.90;;;;;;5075431;28;20469;-70
2022/01/07 06:17:13;;;;;;;13.40;6.03;;;0.80;99.90;;;;;;5075066;28;20458;-70
2022/01/07 06:19:41;;;;;;;7.63;5.63;;;0.80;99.90;;;;;;5075272;28;20462;-70
2022/01/07 06:22:09;;;;;;;8.63;5.90;;;0.80;99.90;;;;;;5075620;28;20969;-71
2022/01/07 06:24:37;;;;;;;10.37;5.33;;;0.80;99.90;;;;;;5075920;28;20451;-69
2022/01/07 06:27:05;;;;;;;7.90;5.37;;;0.80;99.90;;;;;;5075484;28;20482;-70
2022/01/07 06:29:32;;;;;;;9.13;5.70;;;0.80;99.90;;;;;;5074619;28;20462;-70
2022/01/07 06:31:58;;;;;;;10.60;6.77;;;0.70;99.90;;;;;;5075371;28;20960;-69
2022/01/07 06:34:28;;;;;;;9.00;5.50;;;0.70;99.90;;;;;;5074787;28;20824;-70
2022/01/07 06:36:54;;;;;;;11.03;5.70;;;0.70;99.90;;;;;;5074991;28;20789;-69
2022/01/07 06:39:23;;;;;;;13.13;5.30;;;0.80;99.90;;;;;;5075083;28;20515;-70
2022/01/07 06:41:50;;;;;;;6.47;5.20;;;0.70;99.90;;;;;;5075323;28;20822;-70
2022/01/07 06:44:18;;;;;;;13.40;5.90;;;0.80;99.90;;;;;;5074615;28;20462;-70
2022/01/07 06:46:46;;;;;;;9.33;4.93;;;0.80;99.90;;;;;;5074813;28;20556;-73
2022/01/07 06:49:14;;;;;;;11.57;5.53;;;0.80;99.90;;;;;;5074418;28;20482;-70
2022/01/07 06:51:41;;;;;;;7.70;5.90;;;0.80;99.90;;;;;;5074757;28;20489;-70
2022/01/07 06:54:11;;;;;;;6.53;5.23;;;0.80;99.90;;;;;;5076001;28;20501;-70
2022/01/07 06:56:41;;;;;;;14.90;6.03;;;0.90;99.90;;;;;;5078957;28;20919;-69
2022/01/07 06:59:07;;;;;;;6.50;5.00;;;0.90;99.90;;;;;;5078920;28;20469;-70
2022/01/07 07:01:34;;;;;;;9.17;5.20;;;0.90;99.90;;;;;;5078707;28;20457;-69
2022/01/07 07:04:01;;;;;;;8.50;5.80;;;0.90;99.90;;;;;;5078940;28;20453;-71
2022/01/07 07:06:27;;;;;;;12.67;5.17;;;0.90;99.90;;;;;;5079256;28;20485;-70
2022/01/07 07:08:55;;;;;;;11.03;5.77;;;1.00;99.90;;;;;;5079254;28;20464;-68
2022/01/07 07:11:22;;;;;;;7.33;4.63;;;1.00;99.90;;;;;;5078361;28;20462;-70
2022/01/07 07:13:50;;;;;;;7.40;4.80;;;0.90;99.90;;;;;;5078791;28;20465;-70
2022/01/07 07:16:17;;;;;;;6.43;4.43;;;0.90;99.90;;;;;;5078947;28;20762;-70
2022/01/07 07:18:45;;;;;;;9.80;5.10;;;0.90;99.90;;;;;;5077717;28;20450;-69
2022/01/07 07:21:12;;;;;;;8.97;4.80;;;0.90;99.90;;;;;;5077950;28;20454;-70
2022/01/07 07:23:38;;;;;;;5.70;4.40;;;1.00;99.90;;;;;;5078239;28;20450;-70
2022/01/07 07:26:05;;;;;;;7.77;6.27;;;1.00;99.90;;;;;;5078213;28;20778;-70
2022/01/07 07:28:33;;;;;;;10.50;5.20;;;1.00;99.90;;;;;;5077938;28;20515;-71
2022/01/07 07:31:05;;;;;;;7.57;5.20;;;1.00;99.90;;;;;;5078701;28;20450;-69
2022/01/07 07:33:54;;;;;;;10.87;5.20;;;1.00;99.90;;;;;;5078035;28;20453;-70
2022/01/07 07:36:30;;;;;;;8.80;5.20;;;1.00;99.90;;;;;;5077829;28;20453;-70
2022/01/07 07:38:58;;;;;;;9.43;5.80;;;0.90;99.90;;;;;;5077509;28;20438;-69
2022/01/07 07:41:29;;;;;;;9.43;5.70;;;0.90;99.90;;;;;;5077690;28;20511;-70
2022/01/07 07:43:57;;;;;;;8.07;5.90;;;0.90;99.90;;;;;;5077587;28;20465;-69
2022/01/07 07:46:27;;;;;;;9.57;5.03;;;0.90;99.90;;;;;;5077679;28;20535;-70
2022/01/07 07:48:55;;;;;;;7.77;4.97;;;0.90;99.90;;;;;;5078618;28;20478;-70
2022/01/07 07:51:22;;;;;;;10.30;5.70;;;0.90;99.90;;;;;;5079372;28;20507;-71
2022/01/07 07:53:50;;;;;;;9.10;5.30;;;0.90;99.90;;;;;;5079191;28;20476;-70
2022/01/07 07:56:18;;;;;;;11.90;6.60;;;1.00;99.90;;;;;;5078360;28;20911;-71
2022/01/07 07:58:45;;;;;;;14.53;5.27;;;1.00;99.90;;;;;;5077754;28;20545;-70
2022/01/07 08:01:13;;;;;;;12.73;5.53;;;1.00;99.90;;;;;;5077850;28;20537;-69
2022/01/07 08:03:41;;;;;;;7.43;4.83;;;1.00;99.90;;;;;;5077391;28;20501;-70
2022/01/07 08:06:12;;;;;;;8.80;4.87;;;1.00;99.90;;;;;;5076983;28;20482;-69
2022/01/07 08:08:40;;;;;;;7.87;5.80;;;1.00;99.90;;;;;;5077133;28;20462;-70
2022/01/07 08:11:09;;;;;;;9.80;5.20;;;0.90;99.90;;;;;;5077198;28;20458;-70
2022/01/07 08:16:19;;;;;;;7.90;5.47;;;1.00;99.90;;;;;;5076190;28;20423;-70
2022/01/07 08:18:50;;;;;;;10.00;5.90;;;1.00;99.90;;;;;;5076854;28;20531;-69
2022/01/07 08:21:17;;;;;;;9.90;5.90;;;1.00;99.90;;;;;;5077025;28;20470;-71
2022/01/07 08:23:46;;;;;;;7.77;4.90;;;1.10;99.90;;;;;;5076191;28;20454;-70
2022/01/07 08:26:14;;;;;;;10.07;6.03;;;1.10;99.90;;;;;;5076250;28;20481;-70
2022/01/07 08:28:48;;;;;;;11.40;4.90;;;1.10;99.90;;;;;;5076706;28;20470;-70
2022/01/07 08:34:53;;;;;;;7.00;4.63;;;1.10;99.90;;;;;;5076405;28;20871;-70
2022/01/07 08:37:00;;;;;;;5.93;4.73;;;1.30;99.90;;;;;;5076685;28;20429;-69
2022/01/07 08:39:27;;;;;;;8.87;5.30;;;1.30;99.90;;;;;;5076089;28;20489;-69
2022/01/07 08:41:54;;;;;;;9.93;5.47;;;1.30;99.90;;;;;;5076162;28;20457;-68
2022/01/07 08:44:25;;;;;;;7.37;4.57;;;1.40;99.90;;;;;;5076522;28;20461;-69
2022/01/07 08:46:52;;;;;;;7.57;4.97;;;1.40;99.90;;;;;;5075526;28;20466;-69
2022/01/07 08:49:21;;;;;;;9.17;4.90;;;1.50;99.90;;;;;;5075905;28;20492;-70
2022/01/07 08:51:47;;;;;;;8.27;4.80;;;1.50;15.40;;;;;;5075913;28;20457;-69
2022/01/07 08:54:14;;;;;;;11.10;4.40;;;1.50;1.00;;;;;;5075719;28;20457;-69
2022/01/07 08:56:42;;;;;;;8.70;5.00;;;1.60;1.00;;;;;;5076615;28;20450;-69
2022/01/07 08:59:09;;;;;;;16.33;4.90;;;1.60;1.00;;;;;;5075490;28;20469;-69
2022/01/07 09:01:36;;;;;;;8.43;4.87;;;1.70;1.00;;;;;;5076441;28;20454;-69
2022/01/07 09:04:02;;;;;;;7.60;4.50;;;1.70;1.00;;;;;;5076583;28;20458;-69
2022/01/07 09:06:30;;;;;;;13.00;5.03;;;1.70;1.00;;;;;;5076699;28;20494;-70
2022/01/07 09:08:58;;;;;;;6.57;4.50;;;1.70;1.00;;;;;;5075338;28;20465;-69
2022/01/07 09:11:25;;;;;;;8.87;5.40;;;1.80;1.00;;;;;;5075480;28;20462;-68
2022/01/07 09:13:52;;;;;;;15.30;5.03;;;1.90;1.00;;;;;;5075837;28;20454;-69
2022/01/07 09:16:19;;;;;;;7.83;4.70;;;2.00;1.00;;;;;;5075669;28;20451;-68
2022/01/07 09:18:46;;;;;;;11.33;5.30;;;2.00;1.00;;;;;;5074687;28;20458;-68
2022/01/07 09:21:14;;;;;;;12.60;4.87;;;2.10;99.90;;;;;;5075636;28;20543;-69
2022/01/07 09:23:44;;;;;;;8.80;5.50;;;2.10;99.90;;;;;;5075436;28;20519;-69
2022/01/07 09:26:12;;;;;;;9.90;5.37;;;2.10;99.90;;;;;;5075728;28;20481;-68
2022/01/07 09:28:39;;;;;;;7.83;5.17;;;2.10;99.90;;;;;;5076252;28;20461;-69
2022/01/07 09:31:05;;;;;;;6.07;5.10;;;2.20;99.90;;;;;;5075472;28;20469;-69
2022/01/07 09:33:32;;;;;;;11.50;5.10;;;2.20;1.00;;;;;;5075937;28;20458;-69
2022/01/07 09:36:00;;;;;;;9.47;5.00;;;2.30;1.00;;;;;;5079160;28;20488;-70
2022/01/07 09:38:27;;;;;;;14.23;5.20;;;2.30;1.00;;;;;;5078482;28;20458;-70
2022/01/07 09:41:09;;;;;;;9.57;4.87;;;2.30;1.00;;;;;;5079768;28;20458;-71
2022/01/07 09:43:37;;;;;;;10.50;5.97;;;2.30;1.00;;;;;;5078896;28;20438;-70
2022/01/07 09:46:03;;;;;;;7.93;4.53;;;2.40;1.00;;;;;;5079197;28;20454;-70
2022/01/07 09:48:30;;;;;;;9.87;5.10;;;2.50;1.00;;;;;;5080128;28;20493;-70
2022/01/07 09:50:59;;;;;;;8.40;5.60;;;2.50;99.90;;;;;;5076923;28;20462;-70
2022/01/07 09:53:26;;;;;;;9.67;5.33;;;2.50;1.00;;;;;;5075284;28;20819;-69
2022/01/07 09:55:53;;;;;;;7.60;5.57;;;2.50;1.00;;;;;;5075455;28;20454;-70
2022/01/07 09:58:21;;;;;;;9.57;4.93;;;2.50;1.00;;;;;;5075076;28;20792;-70
2022/01/07 10:00:48;;;;;;;9.37;5.20;;;2.60;99.90;;;;;;5075257;28;20473;-69
2022/01/07 10:03:18;;;;;;;11.33;5.20;;;2.50;99.90;;;;;;5075068;28;20790;-69
2022/01/07 10:05:46;;;;;;;12.93;5.00;;;2.60;99.90;;;;;;5075305;28;20458;-69
2022/01/07 10:08:21;;;;;;;9.20;5.67;;;2.60;99.90;;;;;;5075743;28;20505;-70
2022/01/07 10:11:14;;;;;;;14.60;6.00;;;2.70;99.90;;;;;;5074741;28;20536;-69
2022/01/07 10:13:45;;;;;;;9.10;5.80;;;2.80;1.00;;;;;;5075160;28;20740;-70
2022/01/07 10:16:17;;;;;;;8.03;5.00;;;2.90;14.00;;;;;;5074911;28;20728;-69
2022/01/07 10:18:47;;;;;;;8.50;4.50;;;2.90;1.00;;;;;;5074722;28;20473;-70
2022/01/07 10:21:14;;;;;;;7.23;5.20;;;2.90;1.00;;;;;;5075183;28;20489;-71
2022/01/07 10:23:43;;;;;;;9.30;5.50;;;3.00;1.00;;;;;;5074655;28;20451;-70
2022/01/07 10:26:15;;;;;;;10.03;5.70;;;3.10;99.90;;;;;;5074884;28;20462;-70
2022/01/07 10:28:44;;;;;;;6.93;4.90;;;3.10;99.90;;;;;;5075337;28;20486;-70
2022/01/07 10:31:19;;;;;;;9.40;5.40;;;3.10;99.90;;;;;;5078445;28;20465;-70
2022/01/07 10:33:48;;;;;;;13.70;5.70;;;3.20;99.90;;;;;;5078670;28;20446;-69
2022/01/07 10:36:18;;;;;;;10.07;5.50;;;3.20;1.00;;;;;;5079079;28;20539;-71
2022/01/07 10:38:53;;;;;;;13.93;5.37;;;3.20;1.00;;;;;;5078804;28;20446;-69
2022/01/07 10:41:21;;;;;;;9.47;4.83;;;3.20;1.00;;;;;;5079049;28;20438;-70
2022/01/07 10:43:52;;;;;;;9.53;5.23;;;3.20;7.00;;;;;;5078331;28;20814;-70
2022/01/07 10:46:21;;;;;;;11.50;5.60;;;3.30;1.00;;;;;;5078323;28;20480;-70
2022/01/07 10:48:53;;;;;;;11.27;5.80;;;3.30;1.00;;;;;;5077983;28;20473;-70
2022/01/07 10:51:22;;;;;;;6.97;5.53;;;3.40;1.00;;;;;;5078607;28;20541;-70
2022/01/07 10:53:53;;;;;;;10.40;5.80;;;3.50;1.00;;;;;;5078054;28;20848;-70
2022/01/07 10:56:21;;;;;;;9.20;5.60;;;3.50;1.00;;;;;;5077571;28;20867;-70
2022/01/07 10:58:58;;;;;;;9.67;6.43;;;3.60;1.00;;;;;;5077852;28;20469;-70
2022/01/07 11:01:30;;;;;;;16.27;5.07;;;3.60;1.00;;;;;;5076787;28;20938;-70
2022/01/07 11:03:58;;;;;;;7.43;5.17;;;3.60;1.00;;;;;;5078299;28;20791;-70
2022/01/07 11:06:27;;;;;;;6.57;4.83;;;3.60;99.90;;;;;;5077792;28;20915;-70
2022/01/07 11:08:56;;;;;;;8.43;4.80;;;3.70;99.90;;;;;;5077687;28;20458;-70
2022/01/07 11:11:24;;;;;;;11.93;5.63;;;3.70;99.90;;;;;;5077294;28;20450;-70
2022/01/07 11:13:53;;;;;;;8.47;5.20;;;3.70;1.00;;;;;;5077603;28;20465;-70
2022/01/07 11:16:19;;;;;;;12.73;6.30;;;3.70;99.90;;;;;;5079335;28;20454;-69
2022/01/07 11:18:48;;;;;;;11.03;5.20;;;3.80;99.90;;;;;;5079066;28;20781;-70
2022/01/07 11:21:18;;;;;;;7.07;5.70;;;3.80;1.00;;;;;;5078119;28;20458;-70
2022/01/07 11:23:49;;;;;;;8.80;4.80;;;3.80;99.90;;;;;;5077401;28;20450;-70
2022/01/07 11:26:17;;;;;;;12.10;5.40;;;3.80;99.90;;;;;;5077644;28;20477;-70
2022/01/07 11:29:00;;;;;;;9.50;5.03;;;3.70;1.00;;;;;;5077578;28;20972;-70
2022/01/07 11:31:28;;;;;;;8.30;4.33;;;3.80;1.00;;;;;;5077911;28;20763;-69
2022/01/07 11:34:27;;;;;;;9.30;5.63;;;3.70;1.00;;;;;;5077092;28;20464;-70
2022/01/07 11:36:55;;;;;;;5.97;5.27;;;3.70;1.00;;;;;;5016157;28;20444;-70
2022/01/07 11:39:23;;;;;;;11.93;5.03;;;3.60;99.90;;;;;;5015953;28;20457;-70
2022/01/07 11:41:53;;;;;;;8.73;6.00;;;3.50;86.90;;;;;;5042849;28;20527;-70
2022/01/07 11:44:29;;;;;;;7.90;5.17;;;3.50;99.90;;;;;;5077146;28;20713;-69
2022/01/07 11:47:24;;;;;;;8.40;5.20;;;3.50;47.20;;;;;;5077041;28;20802;-70
2022/01/07 11:50:05;;;;;;;11.37;5.80;;;3.40;1.00;;;;;;5076709;28;20442;-70
2022/01/07 11:52:35;;;;;;;12.27;6.40;;;3.30;1.00;;;;;;5077379;28;20499;-69
2022/01/07 11:55:27;;;;;;;12.20;5.97;;;3.30;1.00;;;;;;5076923;28;20450;-70
2022/01/07 11:57:57;;;;;;;12.80;7.00;;;3.30;99.90;;;;;;5076694;28;20526;-68
2022/01/07 12:00:56;;;;;;;7.93;5.70;;;3.20;45.80;;;;;;5076927;28;20762;-70
2022/01/07 12:03:37;;;;;;;9.03;5.97;;;3.10;99.90;;;;;;5077109;28;20446;-70
2022/01/07 12:06:34;;;;;;;7.70;5.90;;;3.10;99.90;;;;;;5076812;28;20517;-70
2022/01/07 12:09:16;;;;;;;9.43;6.20;;;3.10;99.90;;;;;;5069655;28;20833;-70
2022/01/07 12:11:46;;;;;;;14.83;6.93;;;3.10;99.90;;;;;;5076606;28;20439;-70
2022/01/07 12:14:15;;;;;;;13.27;7.17;;;3.00;99.90;;;;;;5076332;28;20958;-69
2022/01/07 12:16:44;;;;;;;12.10;6.93;;;3.00;99.90;;;;;;5076809;28;20454;-70
2022/01/07 12:19:46;;;;;;;11.27;5.53;;;3.10;99.90;;;;;;5076631;28;20836;-71
2022/01/07 12:22:16;;;;;;;11.63;6.70;;;3.10;99.90;;;;;;5052985;28;20464;-70
2022/01/07 12:24:44;;;;;;;7.50;5.67;;;3.10;99.90;;;;;;5076469;28;20549;-69
2022/01/07 12:27:16;;;;;;;9.60;5.80;;;3.00;99.90;;;;;;5075768;28;20474;-69
2022/01/07 12:29:45;;;;;;;9.60;5.70;;;3.10;99.90;;;;;;5076005;28;20442;-68
2022/01/07 12:32:16;;;;;;;13.30;6.57;;;3.10;99.90;;;;;;5076176;28;20462;-69
2022/01/07 12:34:45;;;;;;;9.53;6.60;;;3.10;99.90;;;;;;5076660;28;20446;-69
2022/01/07 12:37:14;;;;;;;14.20;6.20;;;3.10;99.90;;;;;;5076296;28;20461;-70
2022/01/07 12:39:47;;;;;;;12.60;7.13;;;3.00;99.90;;;;;;5075823;28;20450;-70
2022/01/07 12:42:16;;;;;;;11.70;6.70;;;3.00;99.90;;;;;;5076688;28;20438;-69
2022/01/07 12:44:46;;;;;;;9.40;6.80;;;3.00;99.90;;;;;;5076193;28;20844;-69
2022/01/07 12:47:16;;;;;;;11.80;6.77;;;2.90;99.90;;;;;;5076411;28;21036;-70
2022/01/07 12:49:44;;;;;;;15.83;7.67;;;3.00;99.90;;;;;;5077631;28;20832;-70
2022/01/07 12:52:18;;;;;;;9.83;7.00;;;3.00;99.90;;;;;;5078750;28;20458;-70
2022/01/07 12:54:51;;;;;;;10.30;6.80;;;3.00;99.90;;;;;;5078151;28;20442;-70
2022/01/07 12:57:31;;;;;;;12.97;7.10;;;3.00;99.90;;;;;;5076806;28;20438;-70
2022/01/07 13:00:10;;;;;;;11.27;6.30;;;3.00;99.90;;;;;;5076625;28;20903;-69
2022/01/07 13:02:39;;;;;;;11.47;7.20;;;3.00;99.90;;;;;;5075721;28;20439;-70
2022/01/07 13:05:19;;;;;;;11.97;6.70;;;3.00;99.90;;;;;;5076299;28;20455;-70
2022/01/07 13:07:47;;;;;;;12.23;7.30;;;3.00;99.90;;;;;;5075786;28;20462;-69